Time;durP1;ratioP1;P1;durP2;ratioP2;P2;SDS_P1;SDS_P2;PMS_P1;PMS_P2;Temp;Humidity;BMP_temperature;BMP_pressure;BME280_temperature;BME280_humidity;BME280_pressure;Samples;Min_cycle;Max_cycle;Signal;HPM_P1;HPM_P2
2022/10/15 00:01:27;;;;;;;21.02;9.52;;;12.00;99.90;;;;;;5053235;28;20041;-67
2022/10/15 00:03:53;;;;;;;17.08;9.50;;;12.00;99.90;;;;;;5054286;28;20102;-68
2022/10/15 00:06:20;;;;;;;18.23;9.35;;;12.00;99.90;;;;;;5054269;28;20091;-68
2022/10/15 00:08:46;;;;;;;14.65;8.55;;;12.00;99.90;;;;;;5036307;28;20465;-67
2022/10/15 00:11:15;;;;;;;19.13;9.38;;;12.00;99.90;;;;;;5054250;28;20123;-68
2022/10/15 00:13:42;;;;;;;19.98;8.93;;;12.00;99.90;;;;;;5053799;28;20485;-68
2022/10/15 00:16:11;;;;;;;18.90;9.35;;;12.00;99.90;;;;;;5053999;28;20041;-68
2022/10/15 00:18:38;;;;;;;15.88;8.65;;;12.00;99.90;;;;;;5054029;28;20040;-68
2022/10/15 00:21:13;;;;;;;19.08;8.57;;;12.00;99.90;;;;;;5053989;28;20498;-68
2022/10/15 00:23:40;;;;;;;16.20;8.70;;;12.00;99.90;;;;;;5053913;28;20377;-68
2022/10/15 00:26:08;;;;;;;19.65;9.10;;;12.00;99.90;;;;;;5053882;28;20041;-68
2022/10/15 00:28:34;;;;;;;17.38;8.75;;;12.00;99.90;;;;;;5053824;28;20044;-67
2022/10/15 00:31:05;;;;;;;19.13;9.60;;;12.00;99.90;;;;;;5053757;28;20073;-68
2022/10/15 00:33:31;;;;;;;17.35;9.20;;;12.00;99.90;;;;;;5053751;28;20403;-68
2022/10/15 00:36:02;;;;;;;16.88;9.40;;;12.00;99.90;;;;;;5053381;28;20049;-67
2022/10/15 00:38:29;;;;;;;15.77;8.57;;;12.00;99.90;;;;;;5035738;28;20040;-68
2022/10/15 00:40:54;;;;;;;16.65;9.07;;;11.90;99.90;;;;;;5053286;28;20033;-68
2022/10/15 00:43:42;;;;;;;15.80;8.70;;;11.90;99.90;;;;;;5053446;28;20040;-68
2022/10/15 00:46:25;;;;;;;18.25;9.10;;;12.00;99.90;;;;;;5053460;28;20048;-67
2022/10/15 00:49:17;;;;;;;16.05;9.27;;;11.90;99.90;;;;;;5035218;28;20044;-68
2022/10/15 00:51:48;;;;;;;14.93;8.90;;;11.90;99.90;;;;;;5035451;28;20400;-68
2022/10/15 00:54:14;;;;;;;20.40;10.15;;;11.90;99.90;;;;;;5052949;28;20044;-68
2022/10/15 00:56:43;;;;;;;17.20;9.35;;;11.90;99.90;;;;;;5053248;28;20088;-68
2022/10/15 00:59:11;;;;;;;19.95;10.55;;;11.80;99.90;;;;;;5052854;28;20119;-68
2022/10/15 01:01:37;;;;;;;16.38;10.48;;;11.90;99.90;;;;;;5053227;28;20037;-68
2022/10/15 01:04:04;;;;;;;19.45;9.43;;;11.90;99.90;;;;;;5035080;28;20037;-68
2022/10/15 01:06:30;;;;;;;16.80;9.55;;;11.90;99.90;;;;;;5053059;28;20056;-67
2022/10/15 01:08:56;;;;;;;15.65;9.88;;;12.10;99.90;;;;;;5052730;28;20404;-68
2022/10/15 01:11:36;;;;;;;14.75;9.30;;;11.90;99.90;;;;;;5052965;28;20108;-68
2022/10/15 01:14:20;;;;;;;17.75;9.80;;;11.90;99.90;;;;;;5052328;28;20056;-68
2022/10/15 01:17:12;;;;;;;18.90;10.93;;;11.90;99.90;;;;;;5052816;28;20393;-68
2022/10/15 01:20:15;;;;;;;21.23;10.50;;;11.90;99.90;;;;;;5034976;28;20484;-68
2022/10/15 01:23:09;;;;;;;17.85;9.70;;;11.90;99.90;;;;;;5052465;28;20040;-68
2022/10/15 01:26:00;;;;;;;15.15;8.77;;;11.90;99.90;;;;;;5052525;28;20124;-68
2022/10/15 01:28:48;;;;;;;20.42;10.63;;;11.90;99.90;;;;;;5052706;28;20094;-67
2022/10/15 01:31:19;;;;;;;19.05;9.93;;;11.90;99.90;;;;;;5034506;28;20059;-67
2022/10/15 01:34:26;;;;;;;21.85;10.90;;;11.80;99.90;;;;;;5052328;28;20047;-68
2022/10/15 01:37:07;;;;;;;17.70;9.75;;;11.90;99.90;;;;;;5052325;28;20084;-68
2022/10/15 01:39:40;;;;;;;16.10;9.65;;;11.80;99.90;;;;;;5052536;28;20112;-68
2022/10/15 01:42:16;;;;;;;19.33;11.18;;;11.90;99.90;;;;;;5052510;28;20133;-68
2022/10/15 01:44:49;;;;;;;19.98;10.75;;;11.80;99.90;;;;;;5052429;28;20037;-68
2022/10/15 01:47:33;;;;;;;22.05;10.70;;;11.90;99.90;;;;;;5052386;28;20047;-68
2022/10/15 01:50:01;;;;;;;16.63;9.82;;;11.90;99.90;;;;;;5052103;28;20044;-68
2022/10/15 01:52:31;;;;;;;21.10;10.93;;;11.80;99.90;;;;;;5052446;28;20080;-68
2022/10/15 01:54:58;;;;;;;19.13;10.63;;;11.90;99.90;;;;;;5052284;28;20472;-68
2022/10/15 01:57:28;;;;;;;20.08;11.70;;;11.90;99.90;;;;;;5034250;28;20123;-68
2022/10/15 01:59:54;;;;;;;18.42;10.10;;;11.90;99.90;;;;;;5052204;28;20396;-67
2022/10/15 02:02:20;;;;;;;22.30;10.63;;;12.10;99.90;;;;;;5052136;28;20095;-68
2022/10/15 02:04:45;;;;;;;20.35;11.68;;;11.80;99.90;;;;;;5052207;28;20472;-68
2022/10/15 02:07:36;;;;;;;25.77;11.70;;;11.90;99.90;;;;;;5034087;28;20048;-68
2022/10/15 02:10:26;;;;;;;21.15;10.88;;;11.80;99.90;;;;;;5033991;28;20041;-67
2022/10/15 02:12:57;;;;;;;20.70;11.10;;;11.80;99.90;;;;;;5051777;28;20044;-68
2022/10/15 02:15:52;;;;;;;19.00;10.80;;;11.80;99.90;;;;;;5033791;28;20049;-68
2022/10/15 02:18:40;;;;;;;20.30;11.23;;;11.80;99.90;;;;;;5046826;28;20052;-68
2022/10/15 02:21:29;;;;;;;23.27;12.07;;;11.80;99.90;;;;;;5051098;28;20386;-67
2022/10/15 02:24:10;;;;;;;19.13;10.43;;;11.80;99.90;;;;;;5038429;28;20076;-67
2022/10/15 02:26:38;;;;;;;22.60;11.77;;;11.80;99.90;;;;;;5054975;28;20075;-67
2022/10/15 02:29:09;;;;;;;18.50;10.52;;;11.80;99.90;;;;;;5038166;28;20045;-68
2022/10/15 02:31:37;;;;;;;19.40;11.05;;;11.80;99.90;;;;;;5056156;28;20392;-67
2022/10/15 02:34:06;;;;;;;19.08;10.80;;;11.80;99.90;;;;;;5056103;28;20044;-68
2022/10/15 02:36:33;;;;;;;19.08;10.98;;;11.80;99.90;;;;;;5055985;28;20056;-67
2022/10/15 02:39:00;;;;;;;22.60;10.55;;;11.80;99.90;;;;;;5056029;28;20130;-67
2022/10/15 02:41:29;;;;;;;16.98;10.13;;;11.80;99.90;;;;;;5055677;28;20358;-68
2022/10/15 02:43:55;;;;;;;21.90;10.45;;;11.80;99.90;;;;;;5055891;28;20036;-67
2022/10/15 02:46:21;;;;;;;20.20;10.55;;;11.80;99.90;;;;;;5055820;28;20090;-68
2022/10/15 02:48:46;;;;;;;22.70;11.27;;;11.80;99.90;;;;;;5055775;28;20531;-68
2022/10/15 02:51:12;;;;;;;17.25;9.85;;;11.80;99.90;;;;;;5037552;28;20060;-67
2022/10/15 02:53:37;;;;;;;21.73;12.05;;;11.80;99.90;;;;;;5055681;28;20123;-67
2022/10/15 02:56:03;;;;;;;21.20;10.65;;;11.80;99.90;;;;;;5037563;28;20049;-68
2022/10/15 02:58:29;;;;;;;19.05;9.68;;;11.80;99.90;;;;;;5055324;28;20044;-68
2022/10/15 03:00:55;;;;;;;19.30;10.27;;;11.70;99.90;;;;;;5037442;28;20052;-68
2022/10/15 03:03:21;;;;;;;15.88;10.25;;;11.80;99.90;;;;;;5055590;28;20040;-68
2022/10/15 03:05:47;;;;;;;18.40;9.57;;;11.80;99.90;;;;;;5055484;28;20041;-67
2022/10/15 03:08:13;;;;;;;19.48;10.07;;;11.80;99.90;;;;;;5021100;28;20484;-67
2022/10/15 03:10:38;;;;;;;14.80;9.02;;;11.80;99.90;;;;;;5037590;28;20102;-67
2022/10/15 03:13:05;;;;;;;24.52;10.18;;;11.70;99.90;;;;;;5055133;28;20460;-68
2022/10/15 03:15:31;;;;;;;16.45;10.25;;;11.80;99.90;;;;;;5054843;28;20060;-68
2022/10/15 03:17:57;;;;;;;15.13;8.38;;;11.80;99.90;;;;;;5054976;28;20053;-67
2022/10/15 03:20:23;;;;;;;17.60;9.90;;;11.80;99.90;;;;;;5055235;28;20036;-67
2022/10/15 03:22:48;;;;;;;18.48;9.63;;;11.60;99.90;;;;;;5055131;28;20052;-67
2022/10/15 03:25:14;;;;;;;15.93;8.43;;;11.80;99.90;;;;;;5037210;28;20037;-67
2022/10/15 03:27:40;;;;;;;20.00;9.40;;;11.80;99.90;;;;;;5054986;28;20075;-68
2022/10/15 03:30:06;;;;;;;13.68;8.77;;;11.60;99.90;;;;;;5036983;28;20407;-67
2022/10/15 03:32:32;;;;;;;21.95;8.98;;;11.80;99.90;;;;;;5036771;28;20045;-68
2022/10/15 03:34:58;;;;;;;17.98;9.00;;;11.70;99.90;;;;;;5036993;28;20400;-69
2022/10/15 03:37:23;;;;;;;22.75;9.88;;;11.80;99.90;;;;;;5036680;28;20045;-68
2022/10/15 03:39:49;;;;;;;17.98;9.05;;;11.70;99.90;;;;;;5054799;28;20040;-67
2022/10/15 03:42:15;;;;;;;17.35;9.63;;;11.70;99.90;;;;;;5054760;28;20048;-68
2022/10/15 03:44:40;;;;;;;17.13;9.43;;;12.00;99.90;;;;;;5054639;28;20110;-68
2022/10/15 03:47:06;;;;;;;22.35;9.77;;;11.80;99.90;;;;;;5054720;28;20087;-68
2022/10/15 03:49:32;;;;;;;21.70;9.70;;;11.70;99.90;;;;;;5054705;28;20045;-68
2022/10/15 03:51:58;;;;;;;17.55;9.38;;;11.70;99.90;;;;;;5054636;28;20060;-68
2022/10/15 03:54:23;;;;;;;18.65;9.30;;;11.70;99.90;;;;;;5054303;28;20514;-67
2022/10/15 03:56:49;;;;;;;16.08;8.75;;;11.70;99.90;;;;;;5054198;28;20049;-68
2022/10/15 03:59:15;;;;;;;18.33;9.10;;;11.70;99.90;;;;;;5054274;28;20103;-68
2022/10/15 04:01:42;;;;;;;19.50;10.15;;;11.70;99.90;;;;;;5054423;28;20037;-68
2022/10/15 04:04:09;;;;;;;22.65;10.00;;;11.70;99.90;;;;;;5054133;28;20047;-68
2022/10/15 04:06:35;;;;;;;20.52;10.48;;;11.70;99.90;;;;;;5054081;28;20041;-68
2022/10/15 04:09:01;;;;;;;17.73;8.50;;;11.70;99.90;;;;;;5036428;28;20106;-68
2022/10/15 04:11:27;;;;;;;22.83;9.68;;;11.70;99.90;;;;;;5054278;28;20446;-69
2022/10/15 04:13:52;;;;;;;19.40;9.85;;;11.60;99.90;;;;;;5053754;28;20065;-67
2022/10/15 04:16:18;;;;;;;18.70;10.38;;;11.60;99.90;;;;;;5036104;28;20124;-67
2022/10/15 04:18:44;;;;;;;19.80;9.57;;;11.50;99.90;;;;;;5054122;28;20052;-67
2022/10/15 04:21:09;;;;;;;15.70;8.95;;;11.60;99.90;;;;;;5035943;28;20524;-67
2022/10/15 04:23:35;;;;;;;18.17;9.88;;;11.60;99.90;;;;;;5053780;28;20060;-67
2022/10/15 04:26:01;;;;;;;20.90;10.25;;;11.60;99.90;;;;;;5053678;28;20047;-67
2022/10/15 04:28:28;;;;;;;21.05;10.85;;;11.50;99.90;;;;;;5053952;28;20072;-68
2022/10/15 04:30:57;;;;;;;21.60;9.93;;;11.60;99.90;;;;;;5019639;28;20084;-67
2022/10/15 04:33:24;;;;;;;24.90;9.90;;;11.60;99.90;;;;;;5035975;28;20556;-67
2022/10/15 04:36:04;;;;;;;21.30;10.15;;;11.50;99.90;;;;;;5053537;28;20033;-67
2022/10/15 04:38:30;;;;;;;21.90;10.47;;;11.60;99.90;;;;;;5053755;28;20045;-67
2022/10/15 04:41:00;;;;;;;17.92;10.35;;;11.50;99.90;;;;;;5053373;28;20622;-67
2022/10/15 04:43:25;;;;;;;24.50;10.13;;;11.50;99.90;;;;;;5053797;28;20065;-67
2022/10/15 04:45:55;;;;;;;15.93;9.50;;;11.60;99.90;;;;;;5036050;28;20084;-67
2022/10/15 04:48:20;;;;;;;22.10;11.18;;;11.50;99.90;;;;;;5053079;28;20123;-68
2022/10/15 04:50:46;;;;;;;25.20;10.27;;;11.70;99.90;;;;;;5053620;28;20647;-67
2022/10/15 04:53:11;;;;;;;20.90;10.82;;;12.00;99.90;;;;;;5035427;28;20488;-67
2022/10/15 04:55:37;;;;;;;21.77;11.05;;;11.50;99.90;;;;;;5053354;28;20076;-67
2022/10/15 04:58:03;;;;;;;26.95;10.93;;;11.50;99.90;;;;;;5053313;28;20041;-67
2022/10/15 05:00:29;;;;;;;19.83;10.35;;;11.50;99.90;;;;;;5035303;28;20103;-67
2022/10/15 05:02:54;;;;;;;21.10;10.48;;;11.50;99.90;;;;;;5053388;28;20116;-67
2022/10/15 05:05:20;;;;;;;19.58;10.38;;;11.50;99.90;;;;;;5053271;28;20053;-67
2022/10/15 05:07:46;;;;;;;24.13;11.20;;;11.50;99.90;;;;;;5035369;28;20064;-67
2022/10/15 05:10:11;;;;;;;21.92;10.88;;;11.40;99.90;;;;;;5053114;28;20036;-67
2022/10/15 05:12:37;;;;;;;21.38;10.10;;;11.40;99.90;;;;;;5035134;28;20076;-67
2022/10/15 05:15:03;;;;;;;23.38;10.88;;;11.40;99.90;;;;;;5052541;28;20049;-67
2022/10/15 05:17:29;;;;;;;20.42;11.38;;;11.40;99.90;;;;;;5035330;28;20049;-67
2022/10/15 05:19:55;;;;;;;23.73;9.98;;;11.30;99.90;;;;;;5052713;28;20037;-67
2022/10/15 05:22:21;;;;;;;27.58;11.63;;;11.30;99.90;;;;;;5052597;28;20032;-68
2022/10/15 05:24:47;;;;;;;23.75;11.00;;;11.30;99.90;;;;;;5052538;28;20064;-68
2022/10/15 05:27:12;;;;;;;24.73;11.10;;;11.30;99.90;;;;;;5052556;28;20044;-68
2022/10/15 05:29:38;;;;;;;32.00;11.77;;;11.30;99.90;;;;;;5053133;28;20120;-68
2022/10/15 05:32:05;;;;;;;20.35;10.68;;;11.40;99.90;;;;;;5034696;28;20044;-67
2022/10/15 05:34:30;;;;;;;27.30;11.68;;;11.40;99.90;;;;;;5034503;28;20056;-67
2022/10/15 05:36:56;;;;;;;26.63;12.27;;;11.40;99.90;;;;;;5052624;28;20400;-68
2022/10/15 05:39:22;;;;;;;20.70;10.77;;;11.60;99.90;;;;;;5052675;28;20025;-68
2022/10/15 05:41:48;;;;;;;23.98;11.88;;;11.40;99.90;;;;;;5034451;28;20116;-68
2022/10/15 05:44:14;;;;;;;22.42;11.68;;;11.80;99.90;;;;;;5052306;28;20088;-68
2022/10/15 05:46:40;;;;;;;21.40;10.90;;;11.20;99.90;;;;;;5052153;28;20044;-68
2022/10/15 05:49:05;;;;;;;25.67;11.77;;;11.90;99.90;;;;;;5052557;28;20089;-68
2022/10/15 05:51:31;;;;;;;29.73;12.05;;;11.70;99.90;;;;;;5052132;28;20037;-68
2022/10/15 05:53:57;;;;;;;21.20;11.95;;;11.70;99.90;;;;;;5052484;28;20037;-68
2022/10/15 05:56:24;;;;;;;27.85;12.18;;;11.50;99.90;;;;;;5052319;28;20048;-68
2022/10/15 05:58:50;;;;;;;24.77;11.52;;;11.40;99.90;;;;;;5051675;28;20480;-68
2022/10/15 06:01:16;;;;;;;23.75;11.32;;;11.30;99.90;;;;;;5052031;28;20032;-68
2022/10/15 06:03:42;;;;;;;27.20;10.32;;;11.70;99.90;;;;;;5052175;28;20472;-67
2022/10/15 06:06:25;;;;;;;21.23;11.27;;;11.60;99.90;;;;;;5052185;28;20095;-67
2022/10/15 06:08:52;;;;;;;31.33;12.75;;;11.70;99.90;;;;;;5052200;28;20056;-68
2022/10/15 06:11:18;;;;;;;27.10;12.35;;;11.60;99.90;;;;;;5052239;28;20049;-68
2022/10/15 06:13:44;;;;;;;25.48;12.02;;;11.50;99.90;;;;;;5051624;28;20045;-68
2022/10/15 06:16:11;;;;;;;26.02;11.40;;;11.50;99.90;;;;;;5033955;28;20083;-67
2022/10/15 06:18:38;;;;;;;17.27;10.48;;;11.50;99.90;;;;;;5052138;28;20480;-68
2022/10/15 06:21:04;;;;;;;22.98;11.18;;;11.50;99.90;;;;;;5052151;28;20510;-68
2022/10/15 06:23:31;;;;;;;27.30;11.68;;;11.60;99.90;;;;;;5051755;28;20041;-68
2022/10/15 06:26:02;;;;;;;22.13;12.13;;;11.50;99.90;;;;;;5052065;28;20151;-68
2022/10/15 06:28:27;;;;;;;23.85;12.52;;;11.60;99.90;;;;;;5051787;28;20056;-68
2022/10/15 06:30:53;;;;;;;26.33;13.40;;;11.80;99.90;;;;;;5033816;28;20036;-68
2022/10/15 06:33:19;;;;;;;29.98;12.95;;;11.90;99.90;;;;;;5051724;28;20044;-69
2022/10/15 06:35:45;;;;;;;25.05;12.65;;;11.80;99.90;;;;;;5033920;28;20048;-67
2022/10/15 06:38:10;;;;;;;20.70;11.23;;;11.50;99.90;;;;;;5051850;28;20033;-69
2022/10/15 06:40:38;;;;;;;28.08;12.57;;;11.60;99.90;;;;;;5033774;28;20155;-67
2022/10/15 06:43:06;;;;;;;26.38;12.25;;;11.70;99.90;;;;;;5051600;28;20045;-68
2022/10/15 06:45:35;;;;;;;23.48;12.45;;;11.70;99.90;;;;;;5051805;28;20041;-69
2022/10/15 06:48:02;;;;;;;26.77;12.45;;;11.90;99.90;;;;;;5033981;28;20126;-68
2022/10/15 06:50:28;;;;;;;20.40;11.63;;;12.10;99.90;;;;;;5033899;28;20045;-69
2022/10/15 06:52:53;;;;;;;23.48;11.43;;;11.70;99.90;;;;;;5051428;28;20052;-69
2022/10/15 06:55:19;;;;;;;23.52;11.50;;;11.80;99.90;;;;;;5051645;28;20045;-68
2022/10/15 06:57:45;;;;;;;21.90;12.07;;;11.80;99.90;;;;;;5051596;28;20044;-68
2022/10/15 07:00:11;;;;;;;25.30;12.68;;;11.90;99.90;;;;;;5017218;28;20476;-68
2022/10/15 07:02:37;;;;;;;21.58;12.55;;;11.50;99.90;;;;;;5051517;28;20112;-67
2022/10/15 07:05:03;;;;;;;24.55;10.85;;;11.90;99.90;;;;;;5051246;28;20123;-67
2022/10/15 07:07:28;;;;;;;25.67;11.25;;;12.00;99.90;;;;;;5016950;28;20088;-68
2022/10/15 07:09:54;;;;;;;23.55;11.93;;;12.30;99.90;;;;;;5033750;28;20041;-68
2022/10/15 07:12:21;;;;;;;24.38;11.50;;;12.00;99.90;;;;;;5036881;28;20048;-69
2022/10/15 07:14:47;;;;;;;21.02;11.95;;;12.00;99.90;;;;;;5054683;28;20049;-68
2022/10/15 07:17:14;;;;;;;25.40;11.10;;;12.00;99.90;;;;;;5036968;28;20053;-69
2022/10/15 07:19:39;;;;;;;28.38;12.73;;;12.00;99.90;;;;;;5054764;28;20039;-71
2022/10/15 07:22:05;;;;;;;23.15;11.90;;;12.10;99.90;;;;;;5036895;28;20124;-69
2022/10/15 07:24:31;;;;;;;20.55;11.60;;;12.10;99.90;;;;;;5036947;28;20032;-67
2022/10/15 07:26:56;;;;;;;27.10;10.75;;;12.20;99.90;;;;;;5054960;28;20082;-68
2022/10/15 07:29:22;;;;;;;23.52;12.60;;;12.30;99.90;;;;;;5036727;28;20515;-67
2022/10/15 07:31:48;;;;;;;17.90;10.98;;;12.10;99.90;;;;;;5036727;28;20148;-68
2022/10/15 07:34:13;;;;;;;26.85;11.57;;;12.30;99.90;;;;;;5054622;28;20045;-69
2022/10/15 07:36:39;;;;;;;21.10;10.93;;;12.20;99.90;;;;;;5054723;28;20510;-68
2022/10/15 07:39:05;;;;;;;16.83;11.30;;;12.30;99.90;;;;;;5054740;28;20480;-66
2022/10/15 07:41:31;;;;;;;23.85;11.50;;;12.30;99.90;;;;;;5054622;28;20048;-66
2022/10/15 07:43:56;;;;;;;26.10;11.65;;;12.30;99.90;;;;;;5036443;28;20084;-69
2022/10/15 07:46:22;;;;;;;26.55;11.60;;;12.40;99.90;;;;;;5054684;28;20076;-67
2022/10/15 07:48:47;;;;;;;18.83;10.63;;;12.40;99.90;;;;;;5054758;28;20037;-68
2022/10/15 07:51:13;;;;;;;23.80;11.10;;;12.40;99.90;;;;;;5036843;28;20124;-70
2022/10/15 07:53:39;;;;;;;24.48;12.95;;;12.40;99.90;;;;;;5036421;28;20088;-70
2022/10/15 07:56:07;;;;;;;27.02;10.75;;;12.40;99.90;;;;;;5054429;28;20102;-70
2022/10/15 07:58:37;;;;;;;21.65;10.88;;;12.30;99.90;;;;;;5054172;28;20041;-69
2022/10/15 08:01:07;;;;;;;20.83;11.65;;;12.40;99.90;;;;;;5054513;28;20361;-69
2022/10/15 08:03:34;;;;;;;21.70;10.75;;;12.40;99.90;;;;;;5054357;28;20559;-70
2022/10/15 08:06:01;;;;;;;23.80;11.00;;;12.50;99.90;;;;;;5054409;28;20055;-70
2022/10/15 08:08:28;;;;;;;20.00;10.75;;;12.60;99.90;;;;;;5054280;28;20037;-70
2022/10/15 08:10:54;;;;;;;26.15;10.80;;;12.60;99.90;;;;;;5054314;28;20091;-68
2022/10/15 08:13:20;;;;;;;19.40;10.30;;;12.70;99.90;;;;;;5054227;28;20524;-69
2022/10/15 08:15:46;;;;;;;21.77;10.80;;;12.70;99.90;;;;;;5053703;28;20088;-70
2022/10/15 08:18:12;;;;;;;23.23;10.68;;;12.80;99.90;;;;;;5054048;28;20094;-70
2022/10/15 08:20:38;;;;;;;26.38;11.85;;;12.80;99.90;;;;;;5053838;28;20686;-70
2022/10/15 08:23:05;;;;;;;17.80;10.38;;;12.90;99.90;;;;;;5053146;28;20119;-70
2022/10/15 08:25:31;;;;;;;18.45;10.45;;;12.90;99.90;;;;;;5019697;28;20125;-70
2022/10/15 08:27:57;;;;;;;22.67;10.45;;;12.90;99.90;;;;;;5053978;28;20116;-69
2022/10/15 08:30:23;;;;;;;20.52;10.85;;;13.00;99.90;;;;;;5036193;28;20041;-70
2022/10/15 08:32:49;;;;;;;17.88;9.70;;;13.00;99.90;;;;;;5053778;28;20060;-70
2022/10/15 08:35:15;;;;;;;21.27;10.88;;;13.00;99.90;;;;;;5035489;28;20492;-69
2022/10/15 08:37:40;;;;;;;18.52;10.98;;;13.10;99.90;;;;;;5053680;28;20102;-65
2022/10/15 08:40:07;;;;;;;26.50;10.82;;;13.20;99.90;;;;;;5053553;28;20106;-64
2022/10/15 08:42:38;;;;;;;20.35;10.60;;;13.30;99.90;;;;;;5035860;28;20045;-64
2022/10/15 08:45:16;;;;;;;22.17;11.68;;;13.30;99.90;;;;;;5053318;28;20048;-64
2022/10/15 08:47:46;;;;;;;20.55;11.13;;;13.50;99.90;;;;;;5051952;28;20045;-64
2022/10/15 08:50:24;;;;;;;21.00;10.80;;;13.50;99.90;;;;;;5053820;28;20377;-66
2022/10/15 08:52:53;;;;;;;20.73;10.63;;;13.60;99.90;;;;;;5053451;28;20275;-66
2022/10/15 08:55:20;;;;;;;21.52;10.57;;;13.60;99.90;;;;;;5053182;28;20106;-66
2022/10/15 08:57:59;;;;;;;20.45;11.05;;;13.70;99.90;;;;;;5053075;28;20048;-66
2022/10/15 09:00:33;;;;;;;19.02;11.25;;;13.80;99.90;;;;;;5053390;28;20033;-67
2022/10/15 09:03:25;;;;;;;16.98;10.25;;;13.80;99.90;;;;;;5053220;28;20048;-64
2022/10/15 09:06:22;;;;;;;17.10;10.68;;;13.80;99.90;;;;;;5039468;28;20488;-63
2022/10/15 09:09:30;;;;;;;21.10;10.32;;;13.90;99.90;;;;;;5053189;28;20396;-64
2022/10/15 09:12:19;;;;;;;23.33;11.38;;;13.90;99.90;;;;;;4955616;28;20049;-64
2022/10/15 09:14:46;;;;;;;16.15;9.93;;;14.00;99.90;;;;;;5016473;28;20072;-64
2022/10/15 09:17:24;;;;;;;18.50;10.18;;;14.00;99.90;;;;;;5031812;28;20485;-63
2022/10/15 09:19:53;;;;;;;21.83;11.18;;;14.00;99.90;;;;;;5031807;28;20067;-64
2022/10/15 09:22:25;;;;;;;21.90;11.20;;;14.00;99.90;;;;;;5033023;28;20037;-65
2022/10/15 09:24:52;;;;;;;23.52;12.02;;;14.00;99.90;;;;;;5032942;28;20122;-64
2022/10/15 09:27:36;;;;;;;16.85;9.88;;;14.00;99.90;;;;;;5032895;28;20033;-64
2022/10/15 09:30:23;;;;;;;21.30;11.32;;;14.00;99.90;;;;;;5032879;28;20485;-65
2022/10/15 09:32:49;;;;;;;21.08;10.95;;;13.90;99.90;;;;;;5032855;28;20168;-64
2022/10/15 09:35:29;;;;;;;23.20;10.98;;;13.90;99.90;;;;;;5032666;28;20497;-64
2022/10/15 09:38:33;;;;;;;18.25;10.95;;;13.90;99.90;;;;;;5032730;28;20468;-63
2022/10/15 09:41:20;;;;;;;21.30;11.98;;;13.90;99.90;;;;;;5009908;28;20058;-64
2022/10/15 09:43:49;;;;;;;23.83;10.50;;;13.70;99.90;;;;;;5032402;28;20045;-64
2022/10/15 09:46:15;;;;;;;18.83;9.98;;;13.70;99.90;;;;;;5032375;28;20534;-64
2022/10/15 09:49:04;;;;;;;22.00;9.13;;;13.60;99.90;;;;;;5032524;28;20077;-65
2022/10/15 09:51:37;;;;;;;17.42;8.98;;;13.60;99.90;;;;;;5031016;28;20061;-63
2022/10/15 09:54:16;;;;;;;18.67;9.82;;;13.50;99.90;;;;;;5032609;28;20044;-63
2022/10/15 09:56:52;;;;;;;15.52;7.47;;;13.50;99.90;;;;;;5032355;28;20033;-64
2022/10/15 09:59:20;;;;;;;19.52;8.10;;;13.40;99.90;;;;;;5032483;28;20041;-64
2022/10/15 10:02:00;;;;;;;19.88;9.38;;;13.40;99.90;;;;;;5032406;28;20102;-65
2022/10/15 10:04:28;;;;;;;20.48;9.23;;;13.40;99.90;;;;;;5032114;28;20044;-64
2022/10/15 10:06:58;;;;;;;15.95;9.13;;;13.40;99.90;;;;;;5030841;28;20048;-64
2022/10/15 10:09:52;;;;;;;18.10;9.00;;;13.40;99.90;;;;;;5032062;28;20060;-65
2022/10/15 10:12:33;;;;;;;16.65;7.60;;;13.40;99.90;;;;;;5006333;28;20103;-64
2022/10/15 10:15:01;;;;;;;15.32;7.53;;;13.30;99.90;;;;;;5010727;28;20057;-64
2022/10/15 10:17:30;;;;;;;21.23;7.10;;;13.40;99.90;;;;;;5012154;28;20045;-64
2022/10/15 10:20:08;;;;;;;13.77;7.10;;;13.40;99.90;;;;;;5010881;28;20044;-63
2022/10/15 10:22:52;;;;;;;14.63;7.60;;;13.40;99.90;;;;;;5012478;28;20076;-63
2022/10/15 10:25:39;;;;;;;19.50;7.60;;;13.40;99.90;;;;;;5012172;28;20049;-63
2022/10/15 10:28:15;;;;;;;14.05;7.72;;;13.40;99.90;;;;;;5012032;28;20127;-63
2022/10/15 10:30:47;;;;;;;16.33;6.55;;;13.50;99.90;;;;;;5012312;28;20049;-64
2022/10/15 10:33:24;;;;;;;18.92;7.95;;;13.50;99.90;;;;;;5012363;28;20141;-63
2022/10/15 10:35:50;;;;;;;12.73;6.50;;;13.60;99.90;;;;;;5012157;28;20088;-63
2022/10/15 10:38:21;;;;;;;13.48;6.30;;;13.60;99.90;;;;;;5012064;28;20042;-63
2022/10/15 10:41:07;;;;;;;13.20;7.03;;;13.70;99.90;;;;;;5012323;28;20046;-63
2022/10/15 10:43:50;;;;;;;14.77;6.55;;;13.70;99.90;;;;;;5012303;28;20046;-64
2022/10/15 10:46:19;;;;;;;11.00;6.10;;;13.70;99.90;;;;;;5014211;28;20042;-63
2022/10/15 10:48:52;;;;;;;15.07;6.85;;;13.80;99.90;;;;;;5016084;28;20046;-64
2022/10/15 10:51:19;;;;;;;13.48;6.72;;;13.90;99.90;;;;;;5016076;28;20041;-63
2022/10/15 10:53:50;;;;;;;21.13;6.63;;;14.30;99.90;;;;;;5016099;28;20069;-63
2022/10/15 10:56:22;;;;;;;14.63;6.57;;;14.30;99.90;;;;;;5015970;28;20038;-63
2022/10/15 10:58:54;;;;;;;17.95;7.95;;;14.50;99.90;;;;;;5015948;28;20034;-64
2022/10/15 11:01:19;;;;;;;17.25;6.72;;;14.60;99.90;;;;;;5015911;28;20595;-63
2022/10/15 11:03:47;;;;;;;16.63;7.03;;;14.50;99.90;;;;;;5014292;28;20041;-61
2022/10/15 11:06:37;;;;;;;13.70;6.78;;;14.70;99.90;;;;;;5015573;28;20046;-62
2022/10/15 11:09:23;;;;;;;14.43;6.00;;;14.70;99.90;;;;;;5015424;28;20087;-62
2022/10/15 11:11:49;;;;;;;12.88;6.35;;;14.70;99.90;;;;;;5015394;28;20129;-62
2022/10/15 11:14:33;;;;;;;12.00;6.18;;;14.70;99.90;;;;;;5019791;28;20059;-61
2022/10/15 11:17:01;;;;;;;12.18;5.97;;;14.80;99.90;;;;;;5034987;28;20056;-63
2022/10/15 11:19:37;;;;;;;9.70;5.75;;;15.00;99.90;;;;;;5033766;28;20116;-61
2022/10/15 11:22:22;;;;;;;15.23;6.38;;;15.30;99.90;;;;;;5035324;28;20041;-63
2022/10/15 11:24:53;;;;;;;11.60;7.03;;;;;;;;;;5024144;28;20456;-63
2022/10/15 11:27:37;;;;;;;11.95;6.45;;;15.00;99.90;;;;;;5017156;28;20041;-63
2022/10/15 11:30:08;;;;;;;10.98;6.15;;;14.90;99.90;;;;;;5035096;28;20480;-63
2022/10/15 11:32:54;;;;;;;14.40;6.50;;;15.00;99.90;;;;;;5034722;28;20037;-64
2022/10/15 11:35:42;;;;;;;9.40;5.05;;;15.00;99.90;;;;;;5003803;28;20081;-62
2022/10/15 11:38:31;;;;;;;13.55;5.63;;;15.10;99.90;;;;;;5026743;28;20045;-63
2022/10/15 11:41:21;;;;;;;13.90;6.85;;;15.10;99.90;;;;;;5023062;28;20049;-64
2022/10/15 11:44:05;;;;;;;11.40;6.80;;;15.00;99.90;;;;;;5035007;28;20120;-63
2022/10/15 11:47:19;;;;;;;12.38;6.28;;;15.00;99.90;;;;;;5033285;28;20355;-64
2022/10/15 11:49:59;;;;;;;9.32;5.22;;;15.00;99.90;;;;;;5029236;28;20501;-63
2022/10/15 11:53:04;;;;;;;9.18;5.38;;;15.00;99.90;;;;;;5034586;28;20108;-64
2022/10/15 11:55:44;;;;;;;12.45;5.53;;;15.00;99.90;;;;;;5032015;28;20045;-63
2022/10/15 11:58:37;;;;;;;9.98;5.40;;;15.00;99.90;;;;;;5033139;28;20076;-63
2022/10/15 12:01:46;;;;;;;10.88;5.47;;;14.90;99.90;;;;;;5033779;28;20053;-63
2022/10/15 12:04:39;;;;;;;8.70;4.90;;;14.90;99.90;;;;;;5026064;28;20382;-63
2022/10/15 12:07:14;;;;;;;15.75;5.95;;;15.00;99.90;;;;;;5034056;28;20050;-63
2022/10/15 12:09:45;;;;;;;11.30;6.05;;;15.00;99.90;;;;;;5033061;28;20049;-64
2022/10/15 12:12:32;;;;;;;8.80;4.57;;;15.10;99.90;;;;;;5032801;28;20049;-63
2022/10/15 12:15:07;;;;;;;10.88;5.30;;;15.10;99.90;;;;;;5045485;28;20056;-65
2022/10/15 12:17:51;;;;;;;14.55;6.35;;;15.20;99.90;;;;;;5054144;28;20048;-63
2022/10/15 12:20:21;;;;;;;12.32;5.43;;;15.30;99.90;;;;;;5054128;28;20041;-64
2022/10/15 12:22:48;;;;;;;14.10;5.40;;;15.40;99.90;;;;;;5053985;28;20119;-63
2022/10/15 12:25:33;;;;;;;10.07;5.07;;;;;;;;;;5036069;28;20488;-63
2022/10/15 12:28:14;;;;;;;11.00;5.95;;;15.50;99.90;;;;;;5036137;28;20396;-63
2022/10/15 12:30:42;;;;;;;14.35;5.97;;;15.50;99.90;;;;;;5053587;28;20080;-62
2022/10/15 12:33:30;;;;;;;8.95;4.85;;;15.60;99.90;;;;;;5053675;28;20076;-63
2022/10/15 12:35:58;;;;;;;11.75;5.32;;;15.70;99.90;;;;;;5053421;28;20072;-63
2022/10/15 12:38:26;;;;;;;11.80;5.30;;;15.80;99.90;;;;;;5035940;28;20055;-63
2022/10/15 12:41:05;;;;;;;12.38;5.47;;;15.80;99.90;;;;;;5019068;28;20041;-63
2022/10/15 12:43:34;;;;;;;9.45;5.28;;;15.80;99.90;;;;;;5053580;28;20108;-63
2022/10/15 12:46:03;;;;;;;11.27;5.43;;;15.80;99.90;;;;;;5035390;28;20075;-61
2022/10/15 12:48:36;;;;;;;11.60;6.15;;;15.70;99.90;;;;;;5053615;28;20045;-62
2022/10/15 12:51:28;;;;;;;13.45;6.30;;;15.70;99.90;;;;;;5053473;28;20043;-62
2022/10/15 12:53:56;;;;;;;9.40;4.78;;;15.60;99.90;;;;;;5053092;28;20081;-63
2022/10/15 12:56:40;;;;;;;8.77;5.20;;;15.60;99.90;;;;;;5053042;28;20401;-63